sensor_id;sensor_type;location;lat;lon;timestamp;temperature;humidity
64563;SHT31;50961;48.184;11.636;2022-07-10T00:00:28;19.39;69.26
64563;SHT31;50961;48.184;11.636;2022-07-10T00:02:54;19.37;69.07
64563;SHT31;50961;48.184;11.636;2022-07-10T00:05:19;19.37;69.50
64563;SHT31;50961;48.184;11.636;2022-07-10T00:07:46;19.36;69.59
64563;SHT31;50961;48.184;11.636;2022-07-10T00:10:11;19.36;69.40
64563;SHT31;50961;48.184;11.636;2022-07-10T00:12:37;19.33;69.48
64563;SHT31;50961;48.184;11.636;2022-07-10T00:15:04;19.27;69.46
64563;SHT31;50961;48.184;11.636;2022-07-10T00:17:30;19.29;69.88
64563;SHT31;50961;48.184;11.636;2022-07-10T00:19:56;19.29;70.43
64563;SHT31;50961;48.184;11.636;2022-07-10T00:22:21;19.23;70.63
64563;SHT31;50961;48.184;11.636;2022-07-10T00:24:47;19.26;71.05
64563;SHT31;50961;48.184;11.636;2022-07-10T00:27:12;19.16;71.40
64563;SHT31;50961;48.184;11.636;2022-07-10T00:29:37;19.16;71.73
64563;SHT31;50961;48.184;11.636;2022-07-10T00:32:04;19.06;72.25
64563;SHT31;50961;48.184;11.636;2022-07-10T00:34:29;19.03;72.16
64563;SHT31;50961;48.184;11.636;2022-07-10T00:36:55;19.02;72.07
64563;SHT31;50961;48.184;11.636;2022-07-10T00:39:20;19.05;72.31
64563;SHT31;50961;48.184;11.636;2022-07-10T00:41:46;18.92;72.21
64563;SHT31;50961;48.184;11.636;2022-07-10T00:44:11;18.95;72.54
64563;SHT31;50961;48.184;11.636;2022-07-10T00:46:36;18.87;72.77
64563;SHT31;50961;48.184;11.636;2022-07-10T00:49:02;18.76;72.10
64563;SHT31;50961;48.184;11.636;2022-07-10T00:51:29;18.78;71.73
64563;SHT31;50961;48.184;11.636;2022-07-10T00:53:55;18.74;71.82
64563;SHT31;50961;48.184;11.636;2022-07-10T00:56:23;18.74;72.05
64563;SHT31;50961;48.184;11.636;2022-07-10T00:58:49;18.69;72.53
64563;SHT31;50961;48.184;11.636;2022-07-10T01:01:15;18.58;72.81
64563;SHT31;50961;48.184;11.636;2022-07-10T01:03:40;18.57;72.92
64563;SHT31;50961;48.184;11.636;2022-07-10T01:06:06;18.50;73.79
64563;SHT31;50961;48.184;11.636;2022-07-10T01:08:32;18.45;74.79
64563;SHT31;50961;48.184;11.636;2022-07-10T01:10:58;18.50;74.33
64563;SHT31;50961;48.184;11.636;2022-07-10T01:13:24;18.26;75.43
64563;SHT31;50961;48.184;11.636;2022-07-10T01:15:50;18.23;75.71
64563;SHT31;50961;48.184;11.636;2022-07-10T01:18:19;18.20;76.37
64563;SHT31;50961;48.184;11.636;2022-07-10T01:20:44;18.14;76.81
64563;SHT31;50961;48.184;11.636;2022-07-10T01:23:10;18.07;77.14
64563;SHT31;50961;48.184;11.636;2022-07-10T01:25:35;17.99;77.40
64563;SHT31;50961;48.184;11.636;2022-07-10T01:28:00;18.06;77.68
64563;SHT31;50961;48.184;11.636;2022-07-10T01:30:26;18.06;77.70
64563;SHT31;50961;48.184;11.636;2022-07-10T01:32:52;17.99;77.96
64563;SHT31;50961;48.184;11.636;2022-07-10T01:35:18;18.02;77.80
64563;SHT31;50961;48.184;11.636;2022-07-10T01:37:43;18.02;77.63
64563;SHT31;50961;48.184;11.636;2022-07-10T01:40:09;17.99;77.92
64563;SHT31;50961;48.184;11.636;2022-07-10T01:42:35;17.99;78.20
64563;SHT31;50961;48.184;11.636;2022-07-10T01:45:03;17.93;78.40
64563;SHT31;50961;48.184;11.636;2022-07-10T01:47:29;17.97;78.47
64563;SHT31;50961;48.184;11.636;2022-07-10T01:49:54;17.77;79.14
64563;SHT31;50961;48.184;11.636;2022-07-10T01:52:20;17.68;79.23
64563;SHT31;50961;48.184;11.636;2022-07-10T01:54:49;17.69;78.96
64563;SHT31;50961;48.184;11.636;2022-07-10T01:57:14;17.75;78.60
64563;SHT31;50961;48.184;11.636;2022-07-10T01:59:40;17.68;79.13
64563;SHT31;50961;48.184;11.636;2022-07-10T02:02:06;17.64;79.48
64563;SHT31;50961;48.184;11.636;2022-07-10T02:04:32;17.54;79.78
64563;SHT31;50961;48.184;11.636;2022-07-10T02:07:16;17.54;79.97
64563;SHT31;50961;48.184;11.636;2022-07-10T02:09:42;17.54;80.27
64563;SHT31;50961;48.184;11.636;2022-07-10T02:12:10;17.40;80.42
64563;SHT31;50961;48.184;11.636;2022-07-10T02:14:36;17.41;80.23
64563;SHT31;50961;48.184;11.636;2022-07-10T02:17:02;17.35;80.56
64563;SHT31;50961;48.184;11.636;2022-07-10T02:19:28;17.37;80.86
64563;SHT31;50961;48.184;11.636;2022-07-10T02:21:53;17.38;81.08
64563;SHT31;50961;48.184;11.636;2022-07-10T02:24:19;17.20;81.33
64563;SHT31;50961;48.184;11.636;2022-07-10T02:26:44;17.13;81.27
64563;SHT31;50961;48.184;11.636;2022-07-10T02:29:10;17.02;82.03
64563;SHT31;50961;48.184;11.636;2022-07-10T02:31:36;17.10;81.56
64563;SHT31;50961;48.184;11.636;2022-07-10T02:34:06;17.06;82.32
64563;SHT31;50961;48.184;11.636;2022-07-10T02:36:32;16.90;81.90
64563;SHT31;50961;48.184;11.636;2022-07-10T02:38:58;16.76;83.25
64563;SHT31;50961;48.184;11.636;2022-07-10T02:41:23;16.76;83.21
64563;SHT31;50961;48.184;11.636;2022-07-10T02:43:48;16.72;83.70
64563;SHT31;50961;48.184;11.636;2022-07-10T02:46:14;16.77;83.45
64563;SHT31;50961;48.184;11.636;2022-07-10T02:48:39;16.80;83.48
64563;SHT31;50961;48.184;11.636;2022-07-10T02:51:05;16.80;83.60
64563;SHT31;50961;48.184;11.636;2022-07-10T02:53:30;16.77;83.33
64563;SHT31;50961;48.184;11.636;2022-07-10T02:55:56;16.62;83.94
64563;SHT31;50961;48.184;11.636;2022-07-10T02:58:22;16.59;84.07
64563;SHT31;50961;48.184;11.636;2022-07-10T03:00:48;16.59;83.81
64563;SHT31;50961;48.184;11.636;2022-07-10T03:03:13;16.63;83.67
64563;SHT31;50961;48.184;11.636;2022-07-10T03:05:38;16.49;84.42
64563;SHT31;50961;48.184;11.636;2022-07-10T03:08:04;16.54;84.01
64563;SHT31;50961;48.184;11.636;2022-07-10T03:10:29;16.49;84.13
64563;SHT31;50961;48.184;11.636;2022-07-10T03:12:55;16.51;84.18
64563;SHT31;50961;48.184;11.636;2022-07-10T03:15:20;16.49;83.87
64563;SHT31;50961;48.184;11.636;2022-07-10T03:17:45;16.45;84.18
64563;SHT31;50961;48.184;11.636;2022-07-10T03:20:11;16.42;84.12
64563;SHT31;50961;48.184;11.636;2022-07-10T03:22:37;16.47;83.97
64563;SHT31;50961;48.184;11.636;2022-07-10T03:25:03;16.35;84.22
64563;SHT31;50961;48.184;11.636;2022-07-10T03:27:28;16.32;84.36
64563;SHT31;50961;48.184;11.636;2022-07-10T03:29:54;16.31;84.38
64563;SHT31;50961;48.184;11.636;2022-07-10T03:32:19;16.29;84.57
64563;SHT31;50961;48.184;11.636;2022-07-10T03:34:44;16.28;84.36
64563;SHT31;50961;48.184;11.636;2022-07-10T03:37:10;16.22;84.42
64563;SHT31;50961;48.184;11.636;2022-07-10T03:39:36;16.24;84.64
64563;SHT31;50961;48.184;11.636;2022-07-10T03:42:01;16.21;84.63
64563;SHT31;50961;48.184;11.636;2022-07-10T03:44:27;16.27;84.39
64563;SHT31;50961;48.184;11.636;2022-07-10T03:46:52;16.24;84.48
64563;SHT31;50961;48.184;11.636;2022-07-10T03:49:18;16.17;84.63
64563;SHT31;50961;48.184;11.636;2022-07-10T03:51:43;16.15;84.37
64563;SHT31;50961;48.184;11.636;2022-07-10T03:54:08;16.22;84.41
64563;SHT31;50961;48.184;11.636;2022-07-10T03:56:34;16.20;84.12
64563;SHT31;50961;48.184;11.636;2022-07-10T03:59:18;16.13;84.97
64563;SHT31;50961;48.184;11.636;2022-07-10T04:01:43;16.13;84.76
64563;SHT31;50961;48.184;11.636;2022-07-10T04:04:09;16.21;84.90
64563;SHT31;50961;48.184;11.636;2022-07-10T04:06:34;16.18;84.90
64563;SHT31;50961;48.184;11.636;2022-07-10T04:09:03;16.20;84.97
64563;SHT31;50961;48.184;11.636;2022-07-10T04:11:29;16.18;85.20
64563;SHT31;50961;48.184;11.636;2022-07-10T04:13:54;16.18;85.19
64563;SHT31;50961;48.184;11.636;2022-07-10T04:16:20;16.20;84.83
64563;SHT31;50961;48.184;11.636;2022-07-10T04:18:45;16.21;84.74
64563;SHT31;50961;48.184;11.636;2022-07-10T04:21:11;16.22;84.79
64563;SHT31;50961;48.184;11.636;2022-07-10T04:23:36;16.31;84.31
64563;SHT31;50961;48.184;11.636;2022-07-10T04:26:02;16.36;84.23
64563;SHT31;50961;48.184;11.636;2022-07-10T04:28:27;16.34;84.24
64563;SHT31;50961;48.184;11.636;2022-07-10T04:30:52;16.35;84.19
64563;SHT31;50961;48.184;11.636;2022-07-10T04:33:18;16.35;84.41
64563;SHT31;50961;48.184;11.636;2022-07-10T04:35:44;16.44;84.63
64563;SHT31;50961;48.184;11.636;2022-07-10T04:38:09;16.47;84.03
64563;SHT31;50961;48.184;11.636;2022-07-10T04:40:35;16.48;84.05
64563;SHT31;50961;48.184;11.636;2022-07-10T04:43:00;16.49;83.90
64563;SHT31;50961;48.184;11.636;2022-07-10T04:45:26;16.55;83.82
64563;SHT31;50961;48.184;11.636;2022-07-10T04:47:51;16.59;84.17
64563;SHT31;50961;48.184;11.636;2022-07-10T04:50:17;16.63;83.89
64563;SHT31;50961;48.184;11.636;2022-07-10T04:52:42;16.69;83.92
64563;SHT31;50961;48.184;11.636;2022-07-10T04:55:08;16.66;83.62
64563;SHT31;50961;48.184;11.636;2022-07-10T04:57:33;16.69;83.81
64563;SHT31;50961;48.184;11.636;2022-07-10T04:59:58;16.62;83.86
64563;SHT31;50961;48.184;11.636;2022-07-10T05:02:24;16.66;83.53
64563;SHT31;50961;48.184;11.636;2022-07-10T05:04:50;16.63;83.20
64563;SHT31;50961;48.184;11.636;2022-07-10T05:07:15;16.63;83.48
64563;SHT31;50961;48.184;11.636;2022-07-10T05:09:41;16.66;82.72
64563;SHT31;50961;48.184;11.636;2022-07-10T05:12:07;16.71;83.02
64563;SHT31;50961;48.184;11.636;2022-07-10T05:14:32;16.80;81.92
64563;SHT31;50961;48.184;11.636;2022-07-10T05:16:58;16.77;82.18
64563;SHT31;50961;48.184;11.636;2022-07-10T05:19:23;16.75;82.32
64563;SHT31;50961;48.184;11.636;2022-07-10T05:21:49;16.76;81.97
64563;SHT31;50961;48.184;11.636;2022-07-10T05:24:14;16.65;82.56
64563;SHT31;50961;48.184;11.636;2022-07-10T05:26:40;16.77;82.00
64563;SHT31;50961;48.184;11.636;2022-07-10T05:29:05;16.86;81.89
64563;SHT31;50961;48.184;11.636;2022-07-10T05:31:30;16.83;82.11
64563;SHT31;50961;48.184;11.636;2022-07-10T05:33:56;16.79;81.94
64563;SHT31;50961;48.184;11.636;2022-07-10T05:36:21;16.79;81.58
64563;SHT31;50961;48.184;11.636;2022-07-10T05:38:47;16.83;81.26
64563;SHT31;50961;48.184;11.636;2022-07-10T05:41:12;16.87;80.84
64563;SHT31;50961;48.184;11.636;2022-07-10T05:43:38;16.89;80.52
64563;SHT31;50961;48.184;11.636;2022-07-10T05:46:03;16.80;80.68
64563;SHT31;50961;48.184;11.636;2022-07-10T05:48:29;16.83;80.71
64563;SHT31;50961;48.184;11.636;2022-07-10T05:50:55;16.77;80.72
64563;SHT31;50961;48.184;11.636;2022-07-10T05:53:20;16.72;80.81
64563;SHT31;50961;48.184;11.636;2022-07-10T05:55:48;16.79;80.71
64563;SHT31;50961;48.184;11.636;2022-07-10T05:58:15;16.77;80.44
64563;SHT31;50961;48.184;11.636;2022-07-10T06:00:40;16.71;80.66
64563;SHT31;50961;48.184;11.636;2022-07-10T06:03:09;16.68;80.51
64563;SHT31;50961;48.184;11.636;2022-07-10T06:05:35;16.73;80.79
64563;SHT31;50961;48.184;11.636;2022-07-10T06:08:01;16.77;80.74
64563;SHT31;50961;48.184;11.636;2022-07-10T06:10:26;16.80;80.94
64563;SHT31;50961;48.184;11.636;2022-07-10T06:12:51;16.84;80.48
64563;SHT31;50961;48.184;11.636;2022-07-10T06:15:17;16.94;79.86
64563;SHT31;50961;48.184;11.636;2022-07-10T06:17:42;16.92;79.92
64563;SHT31;50961;48.184;11.636;2022-07-10T06:20:08;16.94;80.03
64563;SHT31;50961;48.184;11.636;2022-07-10T06:22:33;16.92;79.96
64563;SHT31;50961;48.184;11.636;2022-07-10T06:25:06;17.00;79.67
64563;SHT31;50961;48.184;11.636;2022-07-10T06:27:32;17.00;79.90
64563;SHT31;50961;48.184;11.636;2022-07-10T06:29:58;17.11;79.82
64563;SHT31;50961;48.184;11.636;2022-07-10T06:32:24;17.13;79.82
64563;SHT31;50961;48.184;11.636;2022-07-10T06:34:50;17.23;79.00
64563;SHT31;50961;48.184;11.636;2022-07-10T06:37:16;17.21;79.42
64563;SHT31;50961;48.184;11.636;2022-07-10T06:39:42;17.21;79.44
64563;SHT31;50961;48.184;11.636;2022-07-10T06:42:07;17.14;79.43
64563;SHT31;50961;48.184;11.636;2022-07-10T06:44:33;17.17;79.47
64563;SHT31;50961;48.184;11.636;2022-07-10T06:46:59;17.16;79.32
64563;SHT31;50961;48.184;11.636;2022-07-10T06:49:45;17.27;79.26
64563;SHT31;50961;48.184;11.636;2022-07-10T06:52:11;17.31;79.22
64563;SHT31;50961;48.184;11.636;2022-07-10T06:54:37;17.34;79.10
64563;SHT31;50961;48.184;11.636;2022-07-10T06:57:03;17.30;78.70
64563;SHT31;50961;48.184;11.636;2022-07-10T06:59:28;17.21;79.16
64563;SHT31;50961;48.184;11.636;2022-07-10T07:01:53;17.19;78.79
64563;SHT31;50961;48.184;11.636;2022-07-10T07:04:19;17.23;79.18
64563;SHT31;50961;48.184;11.636;2022-07-10T07:06:44;17.28;78.81
64563;SHT31;50961;48.184;11.636;2022-07-10T07:09:10;17.34;78.15
64563;SHT31;50961;48.184;11.636;2022-07-10T07:11:36;17.37;78.14
64563;SHT31;50961;48.184;11.636;2022-07-10T07:14:01;17.44;77.90
64563;SHT31;50961;48.184;11.636;2022-07-10T07:16:27;17.45;77.63
64563;SHT31;50961;48.184;11.636;2022-07-10T07:19:03;17.52;77.59
64563;SHT31;50961;48.184;11.636;2022-07-10T07:21:30;17.62;77.25
64563;SHT31;50961;48.184;11.636;2022-07-10T07:24:15;17.67;77.09
64563;SHT31;50961;48.184;11.636;2022-07-10T07:26:40;17.58;76.49
64563;SHT31;50961;48.184;11.636;2022-07-10T07:29:05;17.62;76.85
64563;SHT31;50961;48.184;11.636;2022-07-10T07:31:31;17.64;76.93
64563;SHT31;50961;48.184;11.636;2022-07-10T07:33:57;17.72;77.08
64563;SHT31;50961;48.184;11.636;2022-07-10T07:36:23;18.02;77.19
64563;SHT31;50961;48.184;11.636;2022-07-10T07:38:48;18.18;75.73
64563;SHT31;50961;48.184;11.636;2022-07-10T07:41:13;18.50;74.49
64563;SHT31;50961;48.184;11.636;2022-07-10T07:43:40;18.72;74.48
64563;SHT31;50961;48.184;11.636;2022-07-10T07:46:05;18.87;73.36
64563;SHT31;50961;48.184;11.636;2022-07-10T07:48:31;18.92;72.22
64563;SHT31;50961;48.184;11.636;2022-07-10T07:50:56;18.88;71.22
64563;SHT31;50961;48.184;11.636;2022-07-10T07:53:21;18.78;71.55
64563;SHT31;50961;48.184;11.636;2022-07-10T07:55:47;18.74;72.25
64563;SHT31;50961;48.184;11.636;2022-07-10T07:58:12;18.55;72.33
64563;SHT31;50961;48.184;11.636;2022-07-10T08:00:37;18.54;72.64
64563;SHT31;50961;48.184;11.636;2022-07-10T08:03:03;18.74;72.87
64563;SHT31;50961;48.184;11.636;2022-07-10T08:05:29;19.01;73.02
64563;SHT31;50961;48.184;11.636;2022-07-10T08:07:59;19.24;71.99
64563;SHT31;50961;48.184;11.636;2022-07-10T08:10:30;19.33;71.56
64563;SHT31;50961;48.184;11.636;2022-07-10T08:12:56;19.47;70.84
64563;SHT31;50961;48.184;11.636;2022-07-10T08:15:22;19.68;70.14
64563;SHT31;50961;48.184;11.636;2022-07-10T08:17:55;19.95;68.53
64563;SHT31;50961;48.184;11.636;2022-07-10T08:20:21;20.16;67.06
64563;SHT31;50961;48.184;11.636;2022-07-10T08:22:48;20.26;65.32
64563;SHT31;50961;48.184;11.636;2022-07-10T08:25:14;20.30;64.93
64563;SHT31;50961;48.184;11.636;2022-07-10T08:27:39;20.37;64.98
64563;SHT31;50961;48.184;11.636;2022-07-10T08:30:06;20.30;64.95
64563;SHT31;50961;48.184;11.636;2022-07-10T08:32:31;20.42;64.30
64563;SHT31;50961;48.184;11.636;2022-07-10T08:34:57;20.49;63.08
64563;SHT31;50961;48.184;11.636;2022-07-10T08:37:24;20.69;62.48
64563;SHT31;50961;48.184;11.636;2022-07-10T08:39:50;20.77;61.97
64563;SHT31;50961;48.184;11.636;2022-07-10T08:42:17;20.90;61.35
64563;SHT31;50961;48.184;11.636;2022-07-10T08:44:43;20.88;61.14
64563;SHT31;50961;48.184;11.636;2022-07-10T08:47:09;20.90;61.15
64563;SHT31;50961;48.184;11.636;2022-07-10T08:49:37;21.02;60.89
64563;SHT31;50961;48.184;11.636;2022-07-10T08:52:05;21.02;61.14
64563;SHT31;50961;48.184;11.636;2022-07-10T08:54:32;20.83;61.12
64563;SHT31;50961;48.184;11.636;2022-07-10T08:57:00;20.60;61.80
64563;SHT31;50961;48.184;11.636;2022-07-10T08:59:26;20.50;62.39
64563;SHT31;50961;48.184;11.636;2022-07-10T09:01:52;20.35;63.61
64563;SHT31;50961;48.184;11.636;2022-07-10T09:04:20;20.26;61.90
64563;SHT31;50961;48.184;11.636;2022-07-10T09:06:46;20.37;61.71
64563;SHT31;50961;48.184;11.636;2022-07-10T09:09:11;20.62;62.11
64563;SHT31;50961;48.184;11.636;2022-07-10T09:11:38;20.84;62.15
64563;SHT31;50961;48.184;11.636;2022-07-10T09:14:07;20.70;60.45
64563;SHT31;50961;48.184;11.636;2022-07-10T09:16:35;20.63;60.18
64563;SHT31;50961;48.184;11.636;2022-07-10T09:19:24;20.52;59.95
64563;SHT31;50961;48.184;11.636;2022-07-10T09:21:50;20.37;58.84
64563;SHT31;50961;48.184;11.636;2022-07-10T09:24:16;20.59;59.15
64563;SHT31;50961;48.184;11.636;2022-07-10T09:26:57;20.73;59.22
64563;SHT31;50961;48.184;11.636;2022-07-10T09:29:22;20.85;59.75
64563;SHT31;50961;48.184;11.636;2022-07-10T09:32:08;20.70;58.18
64563;SHT31;50961;48.184;11.636;2022-07-10T09:34:41;20.67;56.45
64563;SHT31;50961;48.184;11.636;2022-07-10T09:42:27;21.14;56.81
64563;SHT31;50961;48.184;11.636;2022-07-10T09:45:01;21.07;56.19
64563;SHT31;50961;48.184;11.636;2022-07-10T09:47:57;20.84;55.08
64563;SHT31;50961;48.184;11.636;2022-07-10T09:50:36;21.04;55.68
64563;SHT31;50961;48.184;11.636;2022-07-10T09:53:03;21.07;54.50
64563;SHT31;50961;48.184;11.636;2022-07-10T09:55:34;21.32;55.13
64563;SHT31;50961;48.184;11.636;2022-07-10T09:58:04;21.53;54.03
64563;SHT31;50961;48.184;11.636;2022-07-10T10:03:05;22.04;55.35
64563;SHT31;50961;48.184;11.636;2022-07-10T10:08:19;22.56;52.89
64563;SHT31;50961;48.184;11.636;2022-07-10T10:10:46;22.75;51.17
64563;SHT31;50961;48.184;11.636;2022-07-10T10:13:16;22.59;50.41
64563;SHT31;50961;48.184;11.636;2022-07-10T10:15:42;22.61;50.17
64563;SHT31;50961;48.184;11.636;2022-07-10T10:18:08;22.40;50.47
64563;SHT31;50961;48.184;11.636;2022-07-10T10:20:34;22.37;50.13
64563;SHT31;50961;48.184;11.636;2022-07-10T10:23:14;22.38;49.86
64563;SHT31;50961;48.184;11.636;2022-07-10T10:25:41;22.66;49.63
64563;SHT31;50961;48.184;11.636;2022-07-10T10:28:10;22.81;48.04
64563;SHT31;50961;48.184;11.636;2022-07-10T10:30:44;22.95;49.40
64563;SHT31;50961;48.184;11.636;2022-07-10T10:36:01;22.71;47.92
64563;SHT31;50961;48.184;11.636;2022-07-10T10:41:27;22.41;50.74
64563;SHT31;50961;48.184;11.636;2022-07-10T10:49:16;22.38;51.01
64563;SHT31;50961;48.184;11.636;2022-07-10T10:54:28;23.04;49.21
64563;SHT31;50961;48.184;11.636;2022-07-10T10:57:13;22.96;47.18
64563;SHT31;50961;48.184;11.636;2022-07-10T11:08:01;22.73;47.30
64563;SHT31;50961;48.184;11.636;2022-07-10T11:10:34;22.90;49.04
64563;SHT31;50961;48.184;11.636;2022-07-10T11:13:06;23.07;46.79
64563;SHT31;50961;48.184;11.636;2022-07-10T11:15:34;23.20;47.30
64563;SHT31;50961;48.184;11.636;2022-07-10T11:18:06;23.30;47.45
64563;SHT31;50961;48.184;11.636;2022-07-10T11:20:35;23.55;47.55
64563;SHT31;50961;48.184;11.636;2022-07-10T11:26:02;23.59;46.24
64563;SHT31;50961;48.184;11.636;2022-07-10T11:31:00;23.40;46.30
64563;SHT31;50961;48.184;11.636;2022-07-10T11:33:26;23.21;44.89
64563;SHT31;50961;48.184;11.636;2022-07-10T11:35:53;23.30;45.32
64563;SHT31;50961;48.184;11.636;2022-07-10T11:38:24;23.14;45.97
64563;SHT31;50961;48.184;11.636;2022-07-10T11:40:50;23.28;46.25
64563;SHT31;50961;48.184;11.636;2022-07-10T11:43:18;23.30;46.53
64563;SHT31;50961;48.184;11.636;2022-07-10T11:45:45;23.33;46.26
64563;SHT31;50961;48.184;11.636;2022-07-10T11:48:20;23.67;46.57
64563;SHT31;50961;48.184;11.636;2022-07-10T11:50:47;23.77;45.27
64563;SHT31;50961;48.184;11.636;2022-07-10T11:53:12;23.94;45.39
64563;SHT31;50961;48.184;11.636;2022-07-10T11:55:38;23.98;46.83
64563;SHT31;50961;48.184;11.636;2022-07-10T11:58:18;23.68;46.00
64563;SHT31;50961;48.184;11.636;2022-07-10T12:00:56;23.89;45.72
64563;SHT31;50961;48.184;11.636;2022-07-10T12:03:23;23.78;44.57
64563;SHT31;50961;48.184;11.636;2022-07-10T12:05:48;24.16;44.77
64563;SHT31;50961;48.184;11.636;2022-07-10T12:08:16;23.90;43.15
64563;SHT31;50961;48.184;11.636;2022-07-10T12:10:41;24.13;44.54
64563;SHT31;50961;48.184;11.636;2022-07-10T12:13:09;24.22;43.96
64563;SHT31;50961;48.184;11.636;2022-07-10T12:15:43;24.15;43.94
64563;SHT31;50961;48.184;11.636;2022-07-10T12:18:20;23.85;44.52
64563;SHT31;50961;48.184;11.636;2022-07-10T12:20:46;23.68;44.53
64563;SHT31;50961;48.184;11.636;2022-07-10T12:23:16;23.75;45.19
64563;SHT31;50961;48.184;11.636;2022-07-10T12:25:43;23.77;45.18
64563;SHT31;50961;48.184;11.636;2022-07-10T12:28:09;24.04;45.36
64563;SHT31;50961;48.184;11.636;2022-07-10T12:30:39;24.16;44.48
64563;SHT31;50961;48.184;11.636;2022-07-10T12:33:13;23.98;43.91
64563;SHT31;50961;48.184;11.636;2022-07-10T12:35:57;23.92;43.87
64563;SHT31;50961;48.184;11.636;2022-07-10T12:38:26;24.02;43.91
64563;SHT31;50961;48.184;11.636;2022-07-10T12:41:12;23.98;43.52
64563;SHT31;50961;48.184;11.636;2022-07-10T12:43:38;23.88;43.57
64563;SHT31;50961;48.184;11.636;2022-07-10T12:48:35;23.95;43.91
64563;SHT31;50961;48.184;11.636;2022-07-10T12:51:26;24.08;43.92
64563;SHT31;50961;48.184;11.636;2022-07-10T12:53:53;24.13;44.69
64563;SHT31;50961;48.184;11.636;2022-07-10T12:56:37;24.20;44.63
64563;SHT31;50961;48.184;11.636;2022-07-10T12:59:12;24.33;42.89
64563;SHT31;50961;48.184;11.636;2022-07-10T13:01:41;24.41;42.70
64563;SHT31;50961;48.184;11.636;2022-07-10T13:04:07;24.27;42.83
64563;SHT31;50961;48.184;11.636;2022-07-10T13:06:34;24.30;41.77
64563;SHT31;50961;48.184;11.636;2022-07-10T13:09:02;23.90;43.24
64563;SHT31;50961;48.184;11.636;2022-07-10T13:11:28;23.95;43.60
64563;SHT31;50961;48.184;11.636;2022-07-10T13:13:53;24.10;42.96
64563;SHT31;50961;48.184;11.636;2022-07-10T13:16:21;24.49;42.78
64563;SHT31;50961;48.184;11.636;2022-07-10T13:18:46;24.70;43.41
64563;SHT31;50961;48.184;11.636;2022-07-10T13:21:12;24.80;42.77
64563;SHT31;50961;48.184;11.636;2022-07-10T13:23:38;24.77;41.49
64563;SHT31;50961;48.184;11.636;2022-07-10T13:26:04;24.74;42.49
64563;SHT31;50961;48.184;11.636;2022-07-10T13:28:32;24.78;41.66
64563;SHT31;50961;48.184;11.636;2022-07-10T13:30:57;24.85;41.23
64563;SHT31;50961;48.184;11.636;2022-07-10T13:33:23;24.87;41.79
64563;SHT31;50961;48.184;11.636;2022-07-10T13:35:49;25.19;41.78
64563;SHT31;50961;48.184;11.636;2022-07-10T13:38:15;25.47;40.14
64563;SHT31;50961;48.184;11.636;2022-07-10T13:40:43;25.60;40.95
64563;SHT31;50961;48.184;11.636;2022-07-10T13:43:09;25.46;40.13
64563;SHT31;50961;48.184;11.636;2022-07-10T13:45:35;25.26;40.70
64563;SHT31;50961;48.184;11.636;2022-07-10T13:48:14;25.39;41.00
64563;SHT31;50961;48.184;11.636;2022-07-10T13:50:41;25.36;39.81
64563;SHT31;50961;48.184;11.636;2022-07-10T13:53:07;25.35;40.72
64563;SHT31;50961;48.184;11.636;2022-07-10T13:55:34;25.39;40.39
64563;SHT31;50961;48.184;11.636;2022-07-10T13:57:59;25.40;40.21
64563;SHT31;50961;48.184;11.636;2022-07-10T14:00:25;25.36;39.57
64563;SHT31;50961;48.184;11.636;2022-07-10T14:02:50;25.16;38.69
64563;SHT31;50961;48.184;11.636;2022-07-10T14:05:15;24.98;39.25
64563;SHT31;50961;48.184;11.636;2022-07-10T14:07:41;25.01;39.96
64563;SHT31;50961;48.184;11.636;2022-07-10T14:10:07;25.02;40.23
64563;SHT31;50961;48.184;11.636;2022-07-10T14:12:33;25.14;39.69
64563;SHT31;50961;48.184;11.636;2022-07-10T14:14:58;25.14;40.55
64563;SHT31;50961;48.184;11.636;2022-07-10T14:17:25;25.05;39.11
64563;SHT31;50961;48.184;11.636;2022-07-10T14:19:51;24.99;39.95
64563;SHT31;50961;48.184;11.636;2022-07-10T14:22:16;24.87;39.49
64563;SHT31;50961;48.184;11.636;2022-07-10T14:24:42;25.11;39.98
64563;SHT31;50961;48.184;11.636;2022-07-10T14:27:07;25.14;39.94
64563;SHT31;50961;48.184;11.636;2022-07-10T14:29:33;25.04;39.29
64563;SHT31;50961;48.184;11.636;2022-07-10T14:31:58;25.11;38.67
64563;SHT31;50961;48.184;11.636;2022-07-10T14:34:24;24.88;39.65
64563;SHT31;50961;48.184;11.636;2022-07-10T14:36:50;24.99;39.54
64563;SHT31;50961;48.184;11.636;2022-07-10T14:39:16;24.84;39.83
64563;SHT31;50961;48.184;11.636;2022-07-10T14:41:41;24.94;40.74
64563;SHT31;50961;48.184;11.636;2022-07-10T14:44:07;24.65;39.06
64563;SHT31;50961;48.184;11.636;2022-07-10T14:46:33;24.61;39.74
64563;SHT31;50961;48.184;11.636;2022-07-10T14:48:59;24.51;39.22
64563;SHT31;50961;48.184;11.636;2022-07-10T14:51:24;24.41;39.57
64563;SHT31;50961;48.184;11.636;2022-07-10T14:53:50;24.49;39.95
64563;SHT31;50961;48.184;11.636;2022-07-10T14:56:15;24.63;40.21
64563;SHT31;50961;48.184;11.636;2022-07-10T14:58:45;24.72;39.08
64563;SHT31;50961;48.184;11.636;2022-07-10T15:01:11;24.71;40.05
64563;SHT31;50961;48.184;11.636;2022-07-10T15:03:36;24.72;40.19
64563;SHT31;50961;48.184;11.636;2022-07-10T15:06:02;24.70;40.08
64563;SHT31;50961;48.184;11.636;2022-07-10T15:08:27;24.68;39.56
64563;SHT31;50961;48.184;11.636;2022-07-10T15:10:53;24.60;39.12
64563;SHT31;50961;48.184;11.636;2022-07-10T15:13:18;24.65;39.60
64563;SHT31;50961;48.184;11.636;2022-07-10T15:15:44;24.64;39.60
64563;SHT31;50961;48.184;11.636;2022-07-10T15:18:10;24.63;39.80
64563;SHT31;50961;48.184;11.636;2022-07-10T15:20:35;24.57;38.57
64563;SHT31;50961;48.184;11.636;2022-07-10T15:23:02;24.40;38.92
64563;SHT31;50961;48.184;11.636;2022-07-10T15:25:28;24.39;39.38
64563;SHT31;50961;48.184;11.636;2022-07-10T15:27:53;24.34;39.70
64563;SHT31;50961;48.184;11.636;2022-07-10T15:30:19;24.20;38.87
64563;SHT31;50961;48.184;11.636;2022-07-10T15:32:45;24.16;38.79
64563;SHT31;50961;48.184;11.636;2022-07-10T15:35:11;24.19;40.03
64563;SHT31;50961;48.184;11.636;2022-07-10T15:37:37;24.20;38.75
64563;SHT31;50961;48.184;11.636;2022-07-10T15:40:03;24.19;39.60
64563;SHT31;50961;48.184;11.636;2022-07-10T15:42:29;24.02;40.28
64563;SHT31;50961;48.184;11.636;2022-07-10T15:44:54;24.02;39.15
64563;SHT31;50961;48.184;11.636;2022-07-10T15:47:20;23.81;39.05
64563;SHT31;50961;48.184;11.636;2022-07-10T15:49:45;23.77;39.31
64563;SHT31;50961;48.184;11.636;2022-07-10T15:52:11;23.68;39.48
64563;SHT31;50961;48.184;11.636;2022-07-10T15:54:36;23.82;40.08